createdAt,value
2017-12-17T00:00:20.334Z,94750.08
2017-12-17T00:02:48.414Z,94749.39
2017-12-17T00:05:16.474Z,94748.92
2017-12-17T00:07:44.541Z,94749.86
2017-12-17T00:10:12.616Z,94755.48
2017-12-17T00:12:40.716Z,94751.74
2017-12-17T00:15:08.806Z,94753.86
2017-12-17T00:17:36.868Z,94754.63
2017-12-17T00:20:04.940Z,94752.52
2017-12-17T00:22:33.030Z,94748.67
2017-12-17T00:25:01.155Z,94750.73
2017-12-17T00:27:29.234Z,94747.97
2017-12-17T00:29:57.901Z,94758.48
2017-12-17T00:32:25.963Z,94752.16
2017-12-17T00:34:54.064Z,94758.68
2017-12-17T00:37:22.139Z,94759.56
2017-12-17T00:39:50.195Z,94763.45
2017-12-17T00:42:18.269Z,94763.52
2017-12-17T00:44:46.334Z,94764.02
2017-12-17T00:47:14.438Z,94770.52
2017-12-17T00:49:42.514Z,94758.17
2017-12-17T00:52:10.578Z,94761.94
2017-12-17T00:54:38.638Z,94765.52
2017-12-17T00:57:06.708Z,94759.07
2017-12-17T00:59:34.799Z,94759.61
2017-12-17T01:02:02.862Z,94771.36
2017-12-17T01:04:30.915Z,94777.23
2017-12-17T01:06:58.992Z,94777.91
2017-12-17T01:09:27.044Z,94775.19
2017-12-17T01:11:55.143Z,94781.05
2017-12-17T01:14:23.202Z,94787.56
2017-12-17T01:16:51.265Z,94790.33
2017-12-17T01:19:19.329Z,94792.05
2017-12-17T01:21:47.395Z,94798.83
2017-12-17T01:24:15.503Z,94795.63
2017-12-17T01:26:43.580Z,94801.16
2017-12-17T01:29:11.655Z,94802.30
2017-12-17T01:31:39.715Z,94796.08
2017-12-17T01:34:07.772Z,94801.91
2017-12-17T01:36:35.833Z,94807.09
2017-12-17T01:39:03.897Z,94803.84
2017-12-17T01:41:32.002Z,94809.19
2017-12-17T01:44:00.065Z,94802.52
2017-12-17T01:46:28.124Z,94807.23
2017-12-17T01:48:56.178Z,94815.21
2017-12-17T01:51:24.249Z,94806.70
2017-12-17T01:53:52.345Z,94815.92
2017-12-17T01:56:20.428Z,94823.20
2017-12-17T01:58:48.499Z,94824.98
2017-12-17T02:01:16.573Z,94825.70
2017-12-17T02:03:44.647Z,94821.02
2017-12-17T02:06:12.751Z,94823.06
2017-12-17T02:08:40.837Z,94837.40
2017-12-17T02:11:08.888Z,94835.40
2017-12-17T02:13:36.952Z,94825.59
2017-12-17T02:16:05.008Z,94837.17
2017-12-17T02:18:33.093Z,94833.32
2017-12-17T02:21:01.145Z,94837.33
2017-12-17T02:23:29.259Z,94837.42
2017-12-17T02:25:57.338Z,94838.77
2017-12-17T02:28:25.473Z,94845.02
2017-12-17T02:30:53.558Z,94844.59
2017-12-17T02:33:21.615Z,94853.14
2017-12-17T02:35:49.666Z,94851.88
2017-12-17T02:38:17.723Z,94849.22
2017-12-17T02:40:45.799Z,94853.01
2017-12-17T02:43:13.894Z,94846.98
2017-12-17T02:45:41.956Z,94850.99
2017-12-17T02:48:10.024Z,94862.75
2017-12-17T02:50:38.093Z,94861.38
2017-12-17T02:53:06.198Z,94867.88
2017-12-17T02:55:34.268Z,94863.31
2017-12-17T02:58:02.328Z,94876.50
2017-12-17T03:00:30.393Z,94877.31
2017-12-17T03:02:58.518Z,94873.16
2017-12-17T03:05:26.575Z,94871.19
2017-12-17T03:07:54.644Z,94872.39
2017-12-17T03:10:22.711Z,94873.05
2017-12-17T03:12:50.769Z,94871.87
2017-12-17T03:15:18.940Z,94870.59
2017-12-17T03:17:47.114Z,94873.89
2017-12-17T03:20:15.182Z,94872.56
2017-12-17T03:22:43.251Z,94876.92
2017-12-17T03:25:11.339Z,94884.79
2017-12-17T03:27:39.424Z,94880.25
2017-12-17T03:30:07.496Z,94884.08
2017-12-17T03:32:35.555Z,94882.89
2017-12-17T03:35:03.631Z,94881.27
2017-12-17T03:37:31.684Z,94887.11
2017-12-17T03:39:59.747Z,94886.05
2017-12-17T03:42:27.844Z,94881.78
2017-12-17T03:44:55.898Z,94887.04
2017-12-17T03:47:23.958Z,94896.02
2017-12-17T03:49:52.019Z,94891.36
2017-12-17T03:52:20.108Z,94887.95
2017-12-17T03:54:48.186Z,94883.22
2017-12-17T03:57:16.281Z,94883.16
2017-12-17T03:59:44.347Z,94890.23
2017-12-17T04:02:12.414Z,94884.09
2017-12-17T04:04:40.477Z,94895.58
2017-12-17T04:07:08.573Z,94891.55
2017-12-17T04:09:36.680Z,94888.63
2017-12-17T04:12:04.738Z,94890.62
2017-12-17T04:14:33.796Z,94890.47
2017-12-17T04:17:01.846Z,94892.83
2017-12-17T04:19:29.954Z,94897.47
2017-12-17T04:21:58.014Z,94898.12
2017-12-17T04:24:26.085Z,94896.91
2017-12-17T04:26:54.175Z,94898.11
2017-12-17T04:29:22.263Z,94899.73
2017-12-17T04:31:50.326Z,94902.97
2017-12-17T04:34:18.390Z,94910.09
2017-12-17T04:36:46.462Z,94910.69
2017-12-17T04:39:14.565Z,94906.04
2017-12-17T04:41:42.644Z,94908.86
2017-12-17T04:44:10.707Z,94909.98
2017-12-17T04:46:38.781Z,94916.77
2017-12-17T04:49:06.834Z,94922.20
2017-12-17T04:51:34.940Z,94916.77
2017-12-17T04:54:03.005Z,94930.61
2017-12-17T04:56:31.067Z,94927.53
2017-12-17T04:58:59.144Z,94931.44
2017-12-17T05:01:27.190Z,94946.69
2017-12-17T05:03:55.298Z,94934.84
2017-12-17T05:06:23.373Z,94948.56
2017-12-17T05:08:51.425Z,94943.16
2017-12-17T05:11:19.493Z,94944.25
2017-12-17T05:13:47.562Z,94941.63
2017-12-17T05:16:15.659Z,94941.07
2017-12-17T05:18:43.726Z,94950.05
2017-12-17T05:21:11.794Z,94953.51
2017-12-17T05:23:39.858Z,94942.17
2017-12-17T05:26:07.919Z,94935.03
2017-12-17T05:28:36.030Z,94941.91
2017-12-17T05:31:04.074Z,94949.42
2017-12-17T05:33:32.148Z,94946.31
2017-12-17T05:36:00.235Z,94954.00
2017-12-17T05:38:28.303Z,94954.86
2017-12-17T05:40:56.402Z,94959.77
2017-12-17T05:43:24.484Z,94959.39
2017-12-17T05:45:52.642Z,94957.81
2017-12-17T05:48:20.706Z,94957.14
2017-12-17T05:50:48.767Z,94962.25
2017-12-17T05:53:16.879Z,94965.88
2017-12-17T05:55:44.946Z,94971.13
2017-12-17T05:58:13.009Z,94973.17
2017-12-17T06:00:41.075Z,94980.27
2017-12-17T06:03:09.190Z,94988.63
2017-12-17T06:05:37.246Z,94997.38
2017-12-17T06:08:05.322Z,94985.66
2017-12-17T06:10:33.484Z,94994.41
2017-12-17T06:13:01.542Z,94997.95
2017-12-17T06:15:29.652Z,95007.09
2017-12-17T06:17:57.715Z,95018.09
2017-12-17T06:20:25.789Z,95019.60
2017-12-17T06:22:53.838Z,95021.66
2017-12-17T06:25:21.915Z,95027.66
2017-12-17T06:27:50.018Z,95038.80
2017-12-17T06:30:18.084Z,95028.35
2017-12-17T06:32:46.154Z,95031.37
2017-12-17T06:35:14.208Z,95041.41
2017-12-17T06:37:42.276Z,95040.66
2017-12-17T06:40:10.371Z,95042.69
2017-12-17T06:42:38.447Z,95038.30
2017-12-17T06:45:06.507Z,95057.77
2017-12-17T06:47:34.570Z,95052.44
2017-12-17T06:50:02.636Z,95055.91
2017-12-17T06:52:30.740Z,95058.06
2017-12-17T06:54:58.895Z,95061.29
2017-12-17T06:57:26.948Z,95063.27
2017-12-17T06:59:55.025Z,95058.06
2017-12-17T07:02:23.088Z,95049.70
2017-12-17T07:04:51.178Z,95056.80
2017-12-17T07:07:19.244Z,95059.72
2017-12-17T07:09:48.203Z,95062.09
2017-12-17T07:12:16.254Z,95071.52
2017-12-17T07:14:44.317Z,95063.00
2017-12-17T07:17:12.410Z,95068.35
2017-12-17T07:19:40.480Z,95067.50
2017-12-17T07:22:08.546Z,95068.41
2017-12-17T07:24:36.636Z,95079.39
2017-12-17T07:27:04.699Z,95078.14
2017-12-17T07:29:32.810Z,95088.97
2017-12-17T07:32:00.913Z,95098.20
2017-12-17T07:34:28.995Z,95102.83
2017-12-17T07:36:57.063Z,95100.87
2017-12-17T07:39:25.132Z,95102.45
2017-12-17T07:41:53.222Z,95110.91
2017-12-17T07:44:21.284Z,95111.50
2017-12-17T07:46:49.361Z,95111.47
2017-12-17T07:49:17.441Z,95123.63
2017-12-17T07:51:45.543Z,95120.33
2017-12-17T07:54:13.654Z,95127.23
2017-12-17T07:56:41.742Z,95127.44
2017-12-17T07:59:09.816Z,95130.86
2017-12-17T08:01:37.887Z,95139.49
2017-12-17T08:04:05.961Z,95139.38
2017-12-17T08:06:34.052Z,95139.48
2017-12-17T08:09:02.110Z,95137.69
2017-12-17T08:11:30.171Z,95143.06
2017-12-17T08:13:58.279Z,95145.66
2017-12-17T08:16:26.347Z,95149.81
2017-12-17T08:18:54.467Z,95151.38
2017-12-17T08:21:22.550Z,95149.50
2017-12-17T08:23:50.615Z,95154.63
2017-12-17T08:26:18.694Z,95160.95
2017-12-17T08:28:46.764Z,95165.05
2017-12-17T08:31:14.863Z,95169.64
2017-12-17T08:33:42.927Z,95175.09
2017-12-17T08:36:10.997Z,95183.95
2017-12-17T08:38:39.069Z,95184.45
2017-12-17T08:41:07.150Z,95178.33
2017-12-17T08:43:35.207Z,95188.31
2017-12-17T08:46:03.291Z,95186.94
2017-12-17T08:48:31.484Z,95186.04
2017-12-17T08:50:59.542Z,95189.72
2017-12-17T08:53:27.631Z,95195.11
2017-12-17T08:55:55.679Z,95191.56
2017-12-17T08:58:23.746Z,95196.77
2017-12-17T09:00:51.855Z,95198.28
2017-12-17T09:03:19.918Z,95197.23
2017-12-17T09:05:47.998Z,95197.34
2017-12-17T09:08:16.059Z,95198.92
2017-12-17T09:10:44.141Z,95207.81
2017-12-17T09:13:12.244Z,95209.19
2017-12-17T09:15:40.410Z,95204.14
2017-12-17T09:18:08.434Z,95221.91
2017-12-17T09:20:36.499Z,95226.39
2017-12-17T09:23:04.566Z,95230.89
2017-12-17T09:25:32.669Z,95233.81
2017-12-17T09:28:00.744Z,95238.16
2017-12-17T09:30:28.817Z,95239.65
2017-12-17T09:32:56.904Z,95237.77
2017-12-17T09:35:24.972Z,95241.22
2017-12-17T09:37:53.108Z,95246.28
2017-12-17T09:40:21.176Z,95246.22
2017-12-17T09:42:49.249Z,95243.39
2017-12-17T09:45:17.321Z,95245.86
2017-12-17T09:47:45.396Z,95245.04
2017-12-17T09:50:13.491Z,95245.37
2017-12-17T09:52:41.656Z,95244.72
2017-12-17T09:55:09.751Z,95239.21
2017-12-17T09:57:37.893Z,95239.20
2017-12-17T10:00:06.008Z,95245.02
2017-12-17T10:02:34.144Z,95239.43
2017-12-17T10:05:02.227Z,95241.58
2017-12-17T10:07:30.330Z,95235.03
2017-12-17T10:09:58.406Z,95238.23
2017-12-17T10:12:26.490Z,95237.63
2017-12-17T10:14:54.564Z,95245.09
2017-12-17T10:17:22.638Z,95246.98
2017-12-17T10:19:50.699Z,95247.38
2017-12-17T10:22:18.774Z,95251.27
2017-12-17T10:24:46.859Z,95258.02
2017-12-17T10:27:14.971Z,95253.14
2017-12-17T10:29:43.040Z,95251.22
2017-12-17T10:32:11.697Z,95259.13
2017-12-17T10:34:39.841Z,95261.21
2017-12-17T10:37:07.906Z,95265.45
2017-12-17T10:39:35.984Z,95263.52
2017-12-17T10:42:04.059Z,95275.94
2017-12-17T10:44:32.155Z,95271.14
2017-12-17T10:47:00.221Z,95265.69
2017-12-17T10:49:28.293Z,95265.41
2017-12-17T10:51:56.354Z,95265.45
2017-12-17T10:54:24.435Z,95266.82
2017-12-17T10:56:52.518Z,95269.14
2017-12-17T10:59:20.600Z,95256.53
2017-12-17T11:01:48.700Z,95258.55
2017-12-17T11:04:16.782Z,95251.98
2017-12-17T11:06:44.867Z,95250.88
2017-12-17T11:09:12.951Z,95255.69
2017-12-17T11:11:41.007Z,95249.22
2017-12-17T11:14:09.112Z,95248.59
2017-12-17T11:16:37.187Z,95258.43
2017-12-17T11:19:05.334Z,95263.44
2017-12-17T11:21:33.422Z,95259.16
2017-12-17T11:24:01.527Z,95259.74
2017-12-17T11:26:29.708Z,95256.61
2017-12-17T11:28:57.806Z,95261.14
2017-12-17T11:31:25.895Z,95258.73
2017-12-17T11:33:53.983Z,95261.39
2017-12-17T11:36:22.090Z,95259.00
2017-12-17T11:38:50.173Z,95256.58
2017-12-17T11:41:18.259Z,95256.54
2017-12-17T11:43:46.374Z,95256.50
2017-12-17T11:46:14.434Z,95257.32
2017-12-17T11:48:42.501Z,95254.36
2017-12-17T11:51:10.602Z,95258.17
2017-12-17T11:53:38.677Z,95252.66
2017-12-17T11:56:06.738Z,95257.52
2017-12-17T11:58:34.817Z,95253.27
2017-12-17T12:01:02.888Z,95255.34
2017-12-17T12:03:30.987Z,95257.31
2017-12-17T12:05:59.073Z,95258.82
2017-12-17T12:08:27.161Z,95258.28
2017-12-17T12:10:55.224Z,95259.22
2017-12-17T12:13:24.182Z,95255.88
2017-12-17T12:15:52.321Z,95260.84
2017-12-17T12:18:20.386Z,95259.59
2017-12-17T12:20:48.455Z,95266.59
2017-12-17T12:23:16.518Z,95266.37
2017-12-17T12:25:44.580Z,95264.94
2017-12-17T12:28:12.692Z,95263.82
2017-12-17T12:30:40.749Z,95263.75
2017-12-17T12:33:08.838Z,95274.11
2017-12-17T12:35:36.906Z,95272.95
2017-12-17T12:38:04.978Z,95274.19
2017-12-17T12:40:33.091Z,95274.95
2017-12-17T12:43:01.210Z,95279.33
2017-12-17T12:45:29.307Z,95278.73
2017-12-17T12:47:57.384Z,95274.40
2017-12-17T12:50:25.470Z,95283.21
2017-12-17T12:52:53.569Z,95285.82
2017-12-17T12:55:21.644Z,95287.39
2017-12-17T12:57:49.716Z,95283.92
2017-12-17T13:00:17.823Z,95277.20
2017-12-17T13:02:45.902Z,95277.07
2017-12-17T13:05:14.075Z,95273.02
2017-12-17T13:07:42.204Z,95265.30
2017-12-17T13:10:10.294Z,95279.07
2017-12-17T13:12:38.442Z,95275.09
2017-12-17T13:15:07.332Z,95277.66
2017-12-17T13:17:35.455Z,95284.29
2017-12-17T13:20:03.550Z,95286.84
2017-12-17T13:22:31.622Z,95280.91
2017-12-17T13:24:59.767Z,95286.00
2017-12-17T13:27:27.787Z,95287.83
2017-12-17T13:29:55.890Z,95291.34
2017-12-17T13:32:24.461Z,95291.97
2017-12-17T13:34:52.536Z,95291.59
2017-12-17T13:37:20.607Z,95297.20
2017-12-17T13:39:48.675Z,95297.11
2017-12-17T13:42:16.809Z,95305.72
2017-12-17T13:44:44.867Z,95305.77
2017-12-17T13:47:12.954Z,95309.08
2017-12-17T13:52:15.296Z,95319.05
2017-12-17T13:54:43.468Z,95317.00
2017-12-17T13:57:11.542Z,95312.09
2017-12-17T13:59:39.624Z,95320.25
2017-12-17T14:02:07.699Z,95325.50
2017-12-17T14:04:36.689Z,95331.66
2017-12-17T14:07:05.150Z,95335.06
2017-12-17T14:09:33.527Z,95331.27
2017-12-17T14:12:01.743Z,95338.75
2017-12-17T14:14:29.979Z,95337.31
2017-12-17T14:16:58.047Z,95344.03
2017-12-17T14:19:26.150Z,95348.16
2017-12-17T14:21:54.260Z,95356.25
2017-12-17T14:24:22.321Z,95357.23
2017-12-17T14:26:50.395Z,95351.98
2017-12-17T14:29:18.525Z,95362.08
2017-12-17T14:31:46.590Z,95367.23
2017-12-17T14:34:14.700Z,95365.58
2017-12-17T14:36:42.814Z,95360.23
2017-12-17T14:39:10.880Z,95360.11
2017-12-17T14:41:39.977Z,95369.75
2017-12-17T14:44:08.375Z,95364.92
2017-12-17T14:46:36.727Z,95381.59
2017-12-17T14:49:05.121Z,95385.33
2017-12-17T14:51:33.466Z,95383.66
2017-12-17T14:54:02.003Z,95383.13
2017-12-17T14:56:31.282Z,95387.89
2017-12-17T14:58:59.727Z,95387.05
2017-12-17T15:01:28.629Z,95392.58
2017-12-17T15:03:57.248Z,95399.53
2017-12-17T15:06:26.784Z,95402.37
2017-12-17T15:08:57.578Z,95409.39
2017-12-17T15:11:26.183Z,95405.92
2017-12-17T15:13:54.979Z,95404.14
2017-12-17T15:16:23.803Z,95408.48
2017-12-17T15:18:52.626Z,95409.55
2017-12-17T15:21:22.350Z,95412.83
2017-12-17T15:23:51.079Z,95412.50
2017-12-17T15:26:19.676Z,95406.91
2017-12-17T15:28:48.412Z,95409.05
2017-12-17T15:31:17.114Z,95408.70
2017-12-17T15:33:45.679Z,95410.58
2017-12-17T15:36:14.389Z,95412.50
2017-12-17T15:38:42.947Z,95413.12
2017-12-17T15:41:11.623Z,95421.89
2017-12-17T15:43:40.313Z,95426.47
2017-12-17T15:46:09.053Z,95425.89
2017-12-17T15:48:38.849Z,95428.09
2017-12-17T15:51:10.641Z,95422.67
2017-12-17T15:53:39.406Z,95423.22
2017-12-17T15:56:08.006Z,95421.04
2017-12-17T15:58:36.799Z,95430.66
2017-12-17T16:01:05.231Z,95426.64
2017-12-17T16:03:33.875Z,95419.69
2017-12-17T16:06:02.566Z,95423.99
2017-12-17T16:08:31.390Z,95432.29
2017-12-17T16:11:00.068Z,95435.41
2017-12-17T16:13:28.504Z,95433.41
2017-12-17T16:15:56.881Z,95437.53
2017-12-17T16:18:25.238Z,95439.95
2017-12-17T16:20:54.489Z,95441.75
2017-12-17T16:23:22.952Z,95447.38
2017-12-17T16:25:53.215Z,95450.78
2017-12-17T16:28:21.555Z,95443.86
2017-12-17T16:30:49.945Z,95445.53
2017-12-17T16:33:18.304Z,95445.47
2017-12-17T16:35:46.679Z,95443.32
2017-12-17T16:38:15.028Z,95452.69
2017-12-17T16:40:43.403Z,95454.56
2017-12-17T16:43:11.820Z,95449.67
2017-12-17T16:45:40.188Z,95451.78
2017-12-17T16:48:08.542Z,95449.77
2017-12-17T16:50:36.906Z,95449.63
2017-12-17T16:53:05.266Z,95448.09
2017-12-17T16:55:33.658Z,95443.97
2017-12-17T16:58:02.032Z,95447.62
2017-12-17T17:00:30.374Z,95442.59
2017-12-17T17:02:58.719Z,95441.95
2017-12-17T17:05:33.741Z,95450.63
2017-12-17T17:08:02.255Z,95442.63
2017-12-17T17:10:30.602Z,95446.03
2017-12-17T17:12:58.967Z,95446.13
2017-12-17T17:15:27.353Z,95446.50
2017-12-17T17:17:55.700Z,95451.06
2017-12-17T17:20:24.118Z,95448.92
2017-12-17T17:22:52.487Z,95449.00
2017-12-17T17:25:20.837Z,95449.05
2017-12-17T17:27:49.190Z,95437.91
2017-12-17T17:30:17.604Z,95440.98
2017-12-17T17:32:45.969Z,95437.41
2017-12-17T17:35:14.364Z,95435.14
2017-12-17T17:37:42.703Z,95436.09
2017-12-17T17:40:11.112Z,95432.41
2017-12-17T17:42:39.458Z,95438.05
2017-12-17T17:45:07.819Z,95439.45
2017-12-17T17:47:36.206Z,95439.11
2017-12-17T17:50:04.560Z,95434.22
2017-12-17T17:52:32.967Z,95440.94
2017-12-17T17:55:01.310Z,95431.25
2017-12-17T17:57:29.707Z,95427.17
2017-12-17T17:59:58.071Z,95433.52
2017-12-17T18:02:26.487Z,95424.65
2017-12-17T18:04:54.978Z,95418.04
2017-12-17T18:07:23.340Z,95419.08
2017-12-17T18:09:51.683Z,95418.90
2017-12-17T18:12:20.017Z,95414.41
2017-12-17T18:14:48.380Z,95414.23
2017-12-17T18:17:16.859Z,95416.81
2017-12-17T18:19:45.252Z,95421.27
2017-12-17T18:22:13.600Z,95420.63
2017-12-17T18:24:41.987Z,95421.83
2017-12-17T18:27:10.651Z,95423.70
2017-12-17T18:29:39.280Z,95424.63
2017-12-17T18:32:07.796Z,95417.73
2017-12-17T18:34:36.162Z,95417.19
2017-12-17T18:37:04.514Z,95415.89
2017-12-17T18:39:32.878Z,95419.63
2017-12-17T18:42:01.277Z,95414.08
2017-12-17T18:44:29.617Z,95410.94
2017-12-17T18:46:57.955Z,95412.49
2017-12-17T18:49:26.317Z,95422.63
2017-12-17T18:51:54.678Z,95418.39
2017-12-17T18:54:23.059Z,95412.28
2017-12-17T18:56:51.406Z,95419.65
2017-12-17T18:59:19.807Z,95422.57
2017-12-17T19:01:48.246Z,95422.97
2017-12-17T19:04:16.603Z,95429.72
2017-12-17T19:06:44.984Z,95426.03
2017-12-17T19:09:13.321Z,95422.82
2017-12-17T19:11:41.930Z,95420.49
2017-12-17T19:14:10.270Z,95428.28
2017-12-17T19:16:38.630Z,95417.22
2017-12-17T19:19:07.341Z,95421.38
2017-12-17T19:21:36.536Z,95417.39
2017-12-17T19:24:04.886Z,95411.02
2017-12-17T19:26:33.312Z,95406.80
2017-12-17T19:29:01.716Z,95404.47
2017-12-17T19:31:30.205Z,95398.33
2017-12-17T19:33:58.549Z,95399.33
2017-12-17T19:36:26.908Z,95399.95
2017-12-17T19:38:55.254Z,95396.94
2017-12-17T19:41:23.591Z,95399.13
2017-12-17T19:43:51.981Z,95399.18
2017-12-17T19:46:20.331Z,95394.75
2017-12-17T19:48:48.685Z,95393.27
2017-12-17T19:51:17.042Z,95394.80
2017-12-17T19:53:45.410Z,95396.59
2017-12-17T19:56:13.787Z,95399.36
2017-12-17T19:58:42.127Z,95399.59
2017-12-17T20:01:10.519Z,95396.45
2017-12-17T20:03:38.902Z,95396.94
2017-12-17T20:06:07.249Z,95395.05
2017-12-17T20:08:35.642Z,95408.55
2017-12-17T20:11:04.008Z,95407.79
2017-12-17T20:13:32.393Z,95402.96
2017-12-17T20:16:01.766Z,95408.44
2017-12-17T20:18:30.137Z,95404.92
2017-12-17T20:20:58.516Z,95404.14
2017-12-17T20:23:26.875Z,95400.59
2017-12-17T20:25:55.234Z,95401.84
2017-12-17T20:28:23.591Z,95401.78
2017-12-17T20:30:51.943Z,95400.34
2017-12-17T20:33:20.382Z,95399.48
2017-12-17T20:35:48.727Z,95401.31
2017-12-17T20:38:17.140Z,95395.33
2017-12-17T20:40:45.486Z,95394.28
2017-12-17T20:43:13.832Z,95398.89
2017-12-17T20:45:42.216Z,95404.01
2017-12-17T20:48:10.573Z,95392.23
2017-12-17T20:50:38.979Z,95392.41
2017-12-17T20:53:07.334Z,95389.20
2017-12-17T20:55:35.706Z,95385.78
2017-12-17T20:58:04.185Z,95379.45
2017-12-17T21:00:32.520Z,95384.55
2017-12-17T21:03:00.880Z,95376.17
2017-12-17T21:05:29.237Z,95374.00
2017-12-17T21:07:57.588Z,95376.55
2017-12-17T21:10:25.971Z,95381.27
2017-12-17T21:12:54.325Z,95371.48
2017-12-17T21:15:22.686Z,95363.19
2017-12-17T21:17:51.047Z,95363.06
2017-12-17T21:20:19.422Z,95368.86
2017-12-17T21:22:47.766Z,95365.71
2017-12-17T21:25:16.118Z,95364.76
2017-12-17T21:27:44.466Z,95366.89
2017-12-17T21:30:12.819Z,95366.82
2017-12-17T21:32:41.450Z,95362.13
2017-12-17T21:35:09.780Z,95359.97
2017-12-17T21:37:38.125Z,95358.61
2017-12-17T21:40:06.478Z,95356.10
2017-12-17T21:42:34.840Z,95349.81
2017-12-17T21:45:03.222Z,95357.12
2017-12-17T21:47:31.566Z,95348.95
2017-12-17T21:49:59.905Z,95346.73
2017-12-17T21:52:28.262Z,95337.27
2017-12-17T21:54:56.595Z,95341.03
2017-12-17T21:57:24.989Z,95339.32
2017-12-17T21:59:53.336Z,95332.73
2017-12-17T22:02:21.677Z,95334.02
2017-12-17T22:04:50.039Z,95320.14
2017-12-17T22:07:18.388Z,95317.12
2017-12-17T22:09:46.745Z,95315.81
2017-12-17T22:12:15.257Z,95312.98
2017-12-17T22:14:43.663Z,95313.58
2017-12-17T22:17:12.049Z,95314.59
2017-12-17T22:19:40.624Z,95314.30
2017-12-17T22:22:08.976Z,95304.78
2017-12-17T22:24:37.328Z,95309.30
2017-12-17T22:27:05.687Z,95307.29
2017-12-17T22:29:34.027Z,95307.35
2017-12-17T22:32:02.382Z,95297.40
2017-12-17T22:34:30.740Z,95304.01
2017-12-17T22:36:59.132Z,95302.38
2017-12-17T22:39:27.477Z,95293.22
2017-12-17T22:41:55.836Z,95300.36
2017-12-17T22:44:24.192Z,95296.95
2017-12-17T22:46:52.539Z,95296.73
2017-12-17T22:49:20.890Z,95293.26
2017-12-17T22:51:49.237Z,95287.70
2017-12-17T22:54:17.583Z,95297.72
2017-12-17T22:56:45.918Z,95288.97
2017-12-17T22:59:14.330Z,95294.91
2017-12-17T23:01:42.677Z,95285.41
2017-12-17T23:04:11.261Z,95287.71
2017-12-17T23:06:39.733Z,95278.06
2017-12-17T23:09:08.403Z,95268.42
2017-12-17T23:11:37.117Z,95258.05
2017-12-17T23:14:05.528Z,95258.69
2017-12-17T23:16:33.944Z,95245.08
2017-12-17T23:19:02.344Z,95251.55
2017-12-17T23:21:30.734Z,95242.93
2017-12-17T23:23:59.113Z,95235.92
2017-12-17T23:26:27.446Z,95230.81
2017-12-17T23:28:55.790Z,95231.91
2017-12-17T23:31:24.136Z,95232.35
2017-12-17T23:33:52.493Z,95211.48
2017-12-17T23:36:20.876Z,95212.02
2017-12-17T23:38:49.221Z,95211.84
2017-12-17T23:41:17.565Z,95202.17
2017-12-17T23:43:45.917Z,95190.75
2017-12-17T23:46:14.256Z,95189.12
2017-12-17T23:48:42.633Z,95174.97
2017-12-17T23:51:10.991Z,95174.88
2017-12-17T23:53:39.334Z,95171.98
2017-12-17T23:56:07.680Z,95167.95
2017-12-17T23:58:36.043Z,95162.89
